Terminal Aerodrome Forecast
Issued by NWS Grand Forks, ND

Home | Current Version | Previous Version | Graphics & Text | Print | Product List | Glossary On
Versions: 1 2 3 4 5 6 7 8 9 10 11 12 13 14 15 16 17 18 19
601
FTUS43 KFGF 101739
TAFFAR
TAF
KFAR 101739Z 1018/1118 32006KT P6SM BKN090
     FM102200 26005KT P6SM BKN080
     FM110000 16007KT P6SM -SN BKN020 OVC025
     FM110500 18008KT 2SM -SN BKN010 OVC020
     FM111200 32016G24KT 5SM BLSN OVC010
     FM111600 34020G30KT P6SM BKN015=

USA.gov is the U.S. government's official web portal to all federal, state and local government web resources and services.